sensor_id;sensor_type;location;lat;lon;timestamp;temperature;humidity
8114;DHT22;4099;52.684;9.918;2022-08-03T00:00:13;17.90;99.90
8114;DHT22;4099;52.684;9.918;2022-08-03T00:05:20;17.70;99.90
8114;DHT22;4099;52.684;9.918;2022-08-03T00:10:22;17.70;99.90
8114;DHT22;4099;52.684;9.918;2022-08-03T00:15:24;17.60;99.90
8114;DHT22;4099;52.684;9.918;2022-08-03T00:20:27;17.50;99.90
8114;DHT22;4099;52.684;9.918;2022-08-03T00:25:29;17.40;99.90
8114;DHT22;4099;52.684;9.918;2022-08-03T00:30:31;17.40;99.90
8114;DHT22;4099;52.684;9.918;2022-08-03T00:35:35;17.50;99.90
8114;DHT22;4099;52.684;9.918;2022-08-03T00:40:36;17.50;99.90
8114;DHT22;4099;52.684;9.918;2022-08-03T00:45:40;17.50;99.90
8114;DHT22;4099;52.684;9.918;2022-08-03T00:50:43;17.60;99.90
8114;DHT22;4099;52.684;9.918;2022-08-03T00:55:45;17.50;99.90
8114;DHT22;4099;52.684;9.918;2022-08-03T01:00:47;17.30;99.90
8114;DHT22;4099;52.684;9.918;2022-08-03T01:05:59;17.20;99.90
8114;DHT22;4099;52.684;9.918;2022-08-03T01:11:05;17.00;99.90
8114;DHT22;4099;52.684;9.918;2022-08-03T01:16:12;17.20;99.90
8114;DHT22;4099;52.684;9.918;2022-08-03T01:21:23;17.40;99.90
8114;DHT22;4099;52.684;9.918;2022-08-03T01:26:39;17.30;99.90
8114;DHT22;4099;52.684;9.918;2022-08-03T01:31:50;17.30;99.90
8114;DHT22;4099;52.684;9.918;2022-08-03T01:36:55;17.20;99.90
8114;DHT22;4099;52.684;9.918;2022-08-03T01:42:00;17.00;99.90
8114;DHT22;4099;52.684;9.918;2022-08-03T01:47:08;16.80;99.90
8114;DHT22;4099;52.684;9.918;2022-08-03T01:52:13;16.80;99.90
8114;DHT22;4099;52.684;9.918;2022-08-03T01:57:18;16.70;99.90
8114;DHT22;4099;52.684;9.918;2022-08-03T02:02:22;16.60;99.90
8114;DHT22;4099;52.684;9.918;2022-08-03T02:07:26;16.50;99.90
8114;DHT22;4099;52.684;9.918;2022-08-03T02:12:30;16.40;99.90
8114;DHT22;4099;52.684;9.918;2022-08-03T02:17:34;16.40;99.90
8114;DHT22;4099;52.684;9.918;2022-08-03T02:22:38;16.40;99.90
8114;DHT22;4099;52.684;9.918;2022-08-03T02:27:47;16.50;99.90
8114;DHT22;4099;52.684;9.918;2022-08-03T02:32:54;16.80;99.90
8114;DHT22;4099;52.684;9.918;2022-08-03T02:38:01;17.00;99.90
8114;DHT22;4099;52.684;9.918;2022-08-03T02:43:07;16.80;99.90
8114;DHT22;4099;52.684;9.918;2022-08-03T02:48:16;16.40;99.90
8114;DHT22;4099;52.684;9.918;2022-08-03T02:53:19;16.40;99.90
8114;DHT22;4099;52.684;9.918;2022-08-03T02:58:22;16.20;99.90
8114;DHT22;4099;52.684;9.918;2022-08-03T03:03:27;16.20;99.90
8114;DHT22;4099;52.684;9.918;2022-08-03T03:08:30;16.10;99.90
8114;DHT22;4099;52.684;9.918;2022-08-03T03:13:32;16.10;99.90
8114;DHT22;4099;52.684;9.918;2022-08-03T03:18:36;16.00;99.90
8114;DHT22;4099;52.684;9.918;2022-08-03T03:23:40;15.80;99.90
8114;DHT22;4099;52.684;9.918;2022-08-03T03:28:43;15.60;99.90
8114;DHT22;4099;52.684;9.918;2022-08-03T03:33:46;15.70;99.90
8114;DHT22;4099;52.684;9.918;2022-08-03T03:38:48;15.70;99.90
8114;DHT22;4099;52.684;9.918;2022-08-03T03:43:50;15.70;99.90
8114;DHT22;4099;52.684;9.918;2022-08-03T03:48:54;15.60;99.90
8114;DHT22;4099;52.684;9.918;2022-08-03T03:53:56;15.60;99.90
8114;DHT22;4099;52.684;9.918;2022-08-03T03:58:58;15.70;99.90
8114;DHT22;4099;52.684;9.918;2022-08-03T04:04:01;15.80;99.90
8114;DHT22;4099;52.684;9.918;2022-08-03T04:09:23;15.80;99.90
8114;DHT22;4099;52.684;9.918;2022-08-03T04:14:43;15.70;99.90
8114;DHT22;4099;52.684;9.918;2022-08-03T04:19:51;15.70;99.90
8114;DHT22;4099;52.684;9.918;2022-08-03T04:25:00;15.80;99.90
8114;DHT22;4099;52.684;9.918;2022-08-03T04:30:05;15.80;99.90
8114;DHT22;4099;52.684;9.918;2022-08-03T04:35:09;15.70;99.90
8114;DHT22;4099;52.684;9.918;2022-08-03T04:40:13;15.80;99.90
8114;DHT22;4099;52.684;9.918;2022-08-03T04:45:16;16.00;99.90
8114;DHT22;4099;52.684;9.918;2022-08-03T04:50:20;16.10;99.90
8114;DHT22;4099;52.684;9.918;2022-08-03T04:55:37;16.10;99.90
8114;DHT22;4099;52.684;9.918;2022-08-03T05:00:39;16.30;99.90
8114;DHT22;4099;52.684;9.918;2022-08-03T05:05:43;16.40;99.90
8114;DHT22;4099;52.684;9.918;2022-08-03T05:10:45;16.50;99.90
8114;DHT22;4099;52.684;9.918;2022-08-03T05:15:46;16.70;99.90
8114;DHT22;4099;52.684;9.918;2022-08-03T05:20:50;16.80;99.90
8114;DHT22;4099;52.684;9.918;2022-08-03T05:25:51;17.10;99.90
8114;DHT22;4099;52.684;9.918;2022-08-03T05:30:53;17.40;99.90
8114;DHT22;4099;52.684;9.918;2022-08-03T05:35:56;17.70;99.90
8114;DHT22;4099;52.684;9.918;2022-08-03T05:40:59;17.90;99.90
8114;DHT22;4099;52.684;9.918;2022-08-03T05:46:00;18.10;99.90
8114;DHT22;4099;52.684;9.918;2022-08-03T05:51:04;18.40;99.90
8114;DHT22;4099;52.684;9.918;2022-08-03T05:56:07;18.80;99.90
8114;DHT22;4099;52.684;9.918;2022-08-03T06:01:09;19.10;99.90
8114;DHT22;4099;52.684;9.918;2022-08-03T06:06:12;19.50;99.90
8114;DHT22;4099;52.684;9.918;2022-08-03T06:11:14;19.80;99.90
8114;DHT22;4099;52.684;9.918;2022-08-03T06:16:16;20.20;99.90
8114;DHT22;4099;52.684;9.918;2022-08-03T06:21:20;20.60;99.90
8114;DHT22;4099;52.684;9.918;2022-08-03T06:26:23;20.90;96.10
8114;DHT22;4099;52.684;9.918;2022-08-03T06:31:25;21.20;90.30
8114;DHT22;4099;52.684;9.918;2022-08-03T06:36:30;21.50;24.90
8114;DHT22;4099;52.684;9.918;2022-08-03T06:41:32;21.80;1.00
8114;DHT22;4099;52.684;9.918;2022-08-03T06:46:34;22.30;1.00
8114;DHT22;4099;52.684;9.918;2022-08-03T06:51:37;22.60;1.00
8114;DHT22;4099;52.684;9.918;2022-08-03T06:56:39;23.10;1.00
8114;DHT22;4099;52.684;9.918;2022-08-03T07:01:40;23.40;99.90
8114;DHT22;4099;52.684;9.918;2022-08-03T07:06:44;23.80;1.00
8114;DHT22;4099;52.684;9.918;2022-08-03T07:11:45;24.30;99.90
8114;DHT22;4099;52.684;9.918;2022-08-03T07:16:47;24.70;59.90
8114;DHT22;4099;52.684;9.918;2022-08-03T07:21:50;25.10;89.00
8114;DHT22;4099;52.684;9.918;2022-08-03T07:26:52;25.40;1.00
8114;DHT22;4099;52.684;9.918;2022-08-03T07:31:57;25.40;1.00
8114;DHT22;4099;52.684;9.918;2022-08-03T07:37:00;25.70;1.00
8114;DHT22;4099;52.684;9.918;2022-08-03T07:42:02;26.40;1.00
8114;DHT22;4099;52.684;9.918;2022-08-03T07:47:05;26.60;1.00
8114;DHT22;4099;52.684;9.918;2022-08-03T07:52:08;26.80;1.00
8114;DHT22;4099;52.684;9.918;2022-08-03T07:57:27;26.90;1.00
8114;DHT22;4099;52.684;9.918;2022-08-03T08:02:29;27.30;99.90
8114;DHT22;4099;52.684;9.918;2022-08-03T08:07:32;27.80;1.00
8114;DHT22;4099;52.684;9.918;2022-08-03T08:12:34;28.10;1.00
8114;DHT22;4099;52.684;9.918;2022-08-03T08:17:44;28.30;1.00
8114;DHT22;4099;52.684;9.918;2022-08-03T08:22:47;28.80;1.00
8114;DHT22;4099;52.684;9.918;2022-08-03T08:27:49;29.10;99.90
8114;DHT22;4099;52.684;9.918;2022-08-03T08:32:51;28.80;92.00
8114;DHT22;4099;52.684;9.918;2022-08-03T08:37:54;28.70;99.90
8114;DHT22;4099;52.684;9.918;2022-08-03T08:42:56;28.80;1.00
8114;DHT22;4099;52.684;9.918;2022-08-03T08:48:01;29.40;1.00
8114;DHT22;4099;52.684;9.918;2022-08-03T08:53:06;29.60;1.00
8114;DHT22;4099;52.684;9.918;2022-08-03T08:58:09;29.80;1.00
8114;DHT22;4099;52.684;9.918;2022-08-03T09:03:12;30.00;1.00
8114;DHT22;4099;52.684;9.918;2022-08-03T09:08:17;29.90;1.00
8114;DHT22;4099;52.684;9.918;2022-08-03T09:13:19;30.00;1.00
8114;DHT22;4099;52.684;9.918;2022-08-03T09:18:28;30.40;1.00
8114;DHT22;4099;52.684;9.918;2022-08-03T09:23:43;30.50;1.00
8114;DHT22;4099;52.684;9.918;2022-08-03T09:28:46;30.90;1.00
8114;DHT22;4099;52.684;9.918;2022-08-03T09:33:48;30.90;1.00
8114;DHT22;4099;52.684;9.918;2022-08-03T09:39:01;30.60;1.00
8114;DHT22;4099;52.684;9.918;2022-08-03T09:44:05;30.70;1.00
8114;DHT22;4099;52.684;9.918;2022-08-03T09:49:08;30.80;1.00
8114;DHT22;4099;52.684;9.918;2022-08-03T09:54:12;31.00;1.00
8114;DHT22;4099;52.684;9.918;2022-08-03T09:59:27;31.30;1.00
8114;DHT22;4099;52.684;9.918;2022-08-03T10:04:29;30.70;1.00
8114;DHT22;4099;52.684;9.918;2022-08-03T10:09:32;30.70;1.00
8114;DHT22;4099;52.684;9.918;2022-08-03T10:14:36;31.10;1.00
8114;DHT22;4099;52.684;9.918;2022-08-03T10:19:38;31.30;1.00
8114;DHT22;4099;52.684;9.918;2022-08-03T10:24:48;31.00;1.00
8114;DHT22;4099;52.684;9.918;2022-08-03T10:29:52;31.60;1.00
8114;DHT22;4099;52.684;9.918;2022-08-03T10:35:05;31.90;1.00
8114;DHT22;4099;52.684;9.918;2022-08-03T10:40:13;32.50;1.00
8114;DHT22;4099;52.684;9.918;2022-08-03T10:45:18;32.90;1.00
8114;DHT22;4099;52.684;9.918;2022-08-03T10:50:22;32.70;1.00
8114;DHT22;4099;52.684;9.918;2022-08-03T10:55:31;32.30;1.00
8114;DHT22;4099;52.684;9.918;2022-08-03T11:00:50;32.60;1.00
8114;DHT22;4099;52.684;9.918;2022-08-03T11:05:52;33.00;1.00
8114;DHT22;4099;52.684;9.918;2022-08-03T11:11:00;32.80;1.00
8114;DHT22;4099;52.684;9.918;2022-08-03T11:16:17;32.80;1.00
8114;DHT22;4099;52.684;9.918;2022-08-03T11:21:19;32.50;1.00
8114;DHT22;4099;52.684;9.918;2022-08-03T11:26:22;32.30;1.00
8114;DHT22;4099;52.684;9.918;2022-08-03T11:31:44;32.60;1.00
8114;DHT22;4099;52.684;9.918;2022-08-03T11:37:18;33.30;1.00
8114;DHT22;4099;52.684;9.918;2022-08-03T11:42:40;33.70;1.00
8114;DHT22;4099;52.684;9.918;2022-08-03T11:47:45;33.80;1.00
8114;DHT22;4099;52.684;9.918;2022-08-03T11:52:48;33.90;1.00
8114;DHT22;4099;52.684;9.918;2022-08-03T11:57:58;34.10;1.00
8114;DHT22;4099;52.684;9.918;2022-08-03T12:03:02;34.30;1.00
8114;DHT22;4099;52.684;9.918;2022-08-03T12:08:05;34.20;1.00
8114;DHT22;4099;52.684;9.918;2022-08-03T12:13:09;34.40;1.00
8114;DHT22;4099;52.684;9.918;2022-08-03T12:18:15;34.40;1.00
8114;DHT22;4099;52.684;9.918;2022-08-03T12:23:17;34.40;1.00
8114;DHT22;4099;52.684;9.918;2022-08-03T12:28:21;34.20;1.00
8114;DHT22;4099;52.684;9.918;2022-08-03T12:33:24;34.20;1.00
8114;DHT22;4099;52.684;9.918;2022-08-03T12:38:26;33.90;1.00
8114;DHT22;4099;52.684;9.918;2022-08-03T12:43:29;34.70;1.00
8114;DHT22;4099;52.684;9.918;2022-08-03T12:48:31;35.00;1.00
8114;DHT22;4099;52.684;9.918;2022-08-03T12:53:33;35.70;1.00
8114;DHT22;4099;52.684;9.918;2022-08-03T12:58:36;36.20;1.00
8114;DHT22;4099;52.684;9.918;2022-08-03T13:03:39;35.80;1.00
8114;DHT22;4099;52.684;9.918;2022-08-03T13:08:42;36.50;1.00
8114;DHT22;4099;52.684;9.918;2022-08-03T13:13:46;36.80;1.00
8114;DHT22;4099;52.684;9.918;2022-08-03T13:18:49;37.70;1.00
8114;DHT22;4099;52.684;9.918;2022-08-03T13:23:52;38.70;1.00
8114;DHT22;4099;52.684;9.918;2022-08-03T13:28:55;38.60;1.00
8114;DHT22;4099;52.684;9.918;2022-08-03T13:33:56;38.50;1.00
8114;DHT22;4099;52.684;9.918;2022-08-03T13:38:58;38.80;1.00
8114;DHT22;4099;52.684;9.918;2022-08-03T13:44:02;39.00;1.00
8114;DHT22;4099;52.684;9.918;2022-08-03T13:49:03;39.40;1.00
8114;DHT22;4099;52.684;9.918;2022-08-03T13:54:06;39.60;1.00
8114;DHT22;4099;52.684;9.918;2022-08-03T13:59:09;40.10;1.00
8114;DHT22;4099;52.684;9.918;2022-08-03T14:04:11;40.40;1.00
8114;DHT22;4099;52.684;9.918;2022-08-03T14:09:14;39.80;1.00
8114;DHT22;4099;52.684;9.918;2022-08-03T14:14:17;40.30;1.00
8114;DHT22;4099;52.684;9.918;2022-08-03T14:19:19;40.50;1.00
8114;DHT22;4099;52.684;9.918;2022-08-03T14:24:21;41.30;1.00
8114;DHT22;4099;52.684;9.918;2022-08-03T14:29:24;41.00;1.00
8114;DHT22;4099;52.684;9.918;2022-08-03T14:34:26;40.10;1.00
8114;DHT22;4099;52.684;9.918;2022-08-03T14:39:28;41.10;1.00
8114;DHT22;4099;52.684;9.918;2022-08-03T14:44:32;41.90;1.00
8114;DHT22;4099;52.684;9.918;2022-08-03T14:49:34;41.90;1.00
8114;DHT22;4099;52.684;9.918;2022-08-03T14:54:36;42.30;1.00
8114;DHT22;4099;52.684;9.918;2022-08-03T14:59:41;42.90;1.00
8114;DHT22;4099;52.684;9.918;2022-08-03T15:04:43;41.50;1.00
8114;DHT22;4099;52.684;9.918;2022-08-03T15:09:45;38.50;1.00
8114;DHT22;4099;52.684;9.918;2022-08-03T15:14:49;36.20;1.00
8114;DHT22;4099;52.684;9.918;2022-08-03T15:19:52;34.80;1.00
8114;DHT22;4099;52.684;9.918;2022-08-03T15:24:54;34.20;1.00
8114;DHT22;4099;52.684;9.918;2022-08-03T15:29:58;33.50;1.00
8114;DHT22;4099;52.684;9.918;2022-08-03T15:35:01;33.90;1.00
8114;DHT22;4099;52.684;9.918;2022-08-03T15:40:04;33.50;1.00
8114;DHT22;4099;52.684;9.918;2022-08-03T15:45:10;33.50;1.00
8114;DHT22;4099;52.684;9.918;2022-08-03T15:50:12;33.50;1.00
8114;DHT22;4099;52.684;9.918;2022-08-03T15:55:15;33.10;1.00
8114;DHT22;4099;52.684;9.918;2022-08-03T16:00:18;33.00;1.00
8114;DHT22;4099;52.684;9.918;2022-08-03T16:05:21;33.10;1.00
8114;DHT22;4099;52.684;9.918;2022-08-03T16:10:23;33.40;1.00
8114;DHT22;4099;52.684;9.918;2022-08-03T16:15:29;33.60;1.00
8114;DHT22;4099;52.684;9.918;2022-08-03T16:20:32;33.80;1.00
8114;DHT22;4099;52.684;9.918;2022-08-03T16:25:34;35.60;1.00
8114;DHT22;4099;52.684;9.918;2022-08-03T16:30:38;36.60;1.00
8114;DHT22;4099;52.684;9.918;2022-08-03T16:35:41;39.30;1.00
8114;DHT22;4099;52.684;9.918;2022-08-03T16:40:43;40.90;1.00
8114;DHT22;4099;52.684;9.918;2022-08-03T16:45:48;42.50;1.00
8114;DHT22;4099;52.684;9.918;2022-08-03T16:50:50;43.10;1.00
8114;DHT22;4099;52.684;9.918;2022-08-03T16:55:53;43.00;1.00
8114;DHT22;4099;52.684;9.918;2022-08-03T17:00:57;43.50;1.00
8114;DHT22;4099;52.684;9.918;2022-08-03T17:05:59;41.30;1.00
8114;DHT22;4099;52.684;9.918;2022-08-03T17:11:01;40.20;1.00
8114;DHT22;4099;52.684;9.918;2022-08-03T17:16:06;40.30;1.00
8114;DHT22;4099;52.684;9.918;2022-08-03T17:21:09;41.70;1.00
8114;DHT22;4099;52.684;9.918;2022-08-03T17:26:13;42.00;1.00
8114;DHT22;4099;52.684;9.918;2022-08-03T17:31:18;42.20;1.00
8114;DHT22;4099;52.684;9.918;2022-08-03T17:36:23;42.30;1.00
8114;DHT22;4099;52.684;9.918;2022-08-03T17:41:25;40.40;1.00
8114;DHT22;4099;52.684;9.918;2022-08-03T17:46:29;38.50;1.00
8114;DHT22;4099;52.684;9.918;2022-08-03T17:51:35;37.60;1.00
8114;DHT22;4099;52.684;9.918;2022-08-03T17:56:58;39.00;1.00
8114;DHT22;4099;52.684;9.918;2022-08-03T18:02:09;37.10;1.00
8114;DHT22;4099;52.684;9.918;2022-08-03T18:07:38;35.10;1.00
8114;DHT22;4099;52.684;9.918;2022-08-03T18:12:46;33.40;1.00
8114;DHT22;4099;52.684;9.918;2022-08-03T18:17:52;32.30;1.00
8114;DHT22;4099;52.684;9.918;2022-08-03T18:22:56;31.50;1.00
8114;DHT22;4099;52.684;9.918;2022-08-03T18:27:59;30.80;1.00
8114;DHT22;4099;52.684;9.918;2022-08-03T18:33:05;30.20;1.00
8114;DHT22;4099;52.684;9.918;2022-08-03T18:38:08;29.90;1.00
8114;DHT22;4099;52.684;9.918;2022-08-03T18:43:14;29.50;1.00
8114;DHT22;4099;52.684;9.918;2022-08-03T18:48:22;29.20;1.00
8114;DHT22;4099;52.684;9.918;2022-08-03T18:53:34;28.80;1.00
8114;DHT22;4099;52.684;9.918;2022-08-03T18:58:45;28.50;1.00
8114;DHT22;4099;52.684;9.918;2022-08-03T19:03:52;28.10;1.00
8114;DHT22;4099;52.684;9.918;2022-08-03T19:09:02;27.80;1.00
8114;DHT22;4099;52.684;9.918;2022-08-03T19:14:07;27.50;1.00
8114;DHT22;4099;52.684;9.918;2022-08-03T19:19:16;27.30;1.00
8114;DHT22;4099;52.684;9.918;2022-08-03T19:24:19;27.10;1.00
8114;DHT22;4099;52.684;9.918;2022-08-03T19:29:23;26.90;99.90
8114;DHT22;4099;52.684;9.918;2022-08-03T19:34:28;26.80;1.00
8114;DHT22;4099;52.684;9.918;2022-08-03T19:39:32;26.70;99.90
8114;DHT22;4099;52.684;9.918;2022-08-03T19:44:37;26.40;1.00
8114;DHT22;4099;52.684;9.918;2022-08-03T19:49:44;26.10;1.00
8114;DHT22;4099;52.684;9.918;2022-08-03T19:54:50;25.80;1.00
8114;DHT22;4099;52.684;9.918;2022-08-03T19:59:54;25.50;1.00
8114;DHT22;4099;52.684;9.918;2022-08-03T20:04:59;25.30;99.90
8114;DHT22;4099;52.684;9.918;2022-08-03T20:10:04;25.20;99.90
8114;DHT22;4099;52.684;9.918;2022-08-03T20:15:09;25.00;99.90
8114;DHT22;4099;52.684;9.918;2022-08-03T20:20:12;24.80;1.00
8114;DHT22;4099;52.684;9.918;2022-08-03T20:25:23;24.50;99.90
8114;DHT22;4099;52.684;9.918;2022-08-03T20:30:26;24.30;1.00
8114;DHT22;4099;52.684;9.918;2022-08-03T20:35:30;24.10;99.90
8114;DHT22;4099;52.684;9.918;2022-08-03T20:40:32;24.00;2.10
8114;DHT22;4099;52.684;9.918;2022-08-03T20:45:36;23.80;99.90
8114;DHT22;4099;52.684;9.918;2022-08-03T20:50:40;23.60;1.00
8114;DHT22;4099;52.684;9.918;2022-08-03T20:55:43;23.50;1.00
8114;DHT22;4099;52.684;9.918;2022-08-03T21:00:45;23.50;1.00
8114;DHT22;4099;52.684;9.918;2022-08-03T21:05:51;23.50;1.00
8114;DHT22;4099;52.684;9.918;2022-08-03T21:10:56;23.40;1.00
8114;DHT22;4099;52.684;9.918;2022-08-03T21:15:59;23.20;1.00
8114;DHT22;4099;52.684;9.918;2022-08-03T21:21:04;23.10;1.00
8114;DHT22;4099;52.684;9.918;2022-08-03T21:26:07;22.90;1.00
8114;DHT22;4099;52.684;9.918;2022-08-03T21:31:11;22.80;1.00
8114;DHT22;4099;52.684;9.918;2022-08-03T21:36:16;22.70;1.00
8114;DHT22;4099;52.684;9.918;2022-08-03T21:41:18;22.60;1.00
8114;DHT22;4099;52.684;9.918;2022-08-03T21:46:21;22.60;1.00
8114;DHT22;4099;52.684;9.918;2022-08-03T21:51:25;22.40;1.00
8114;DHT22;4099;52.684;9.918;2022-08-03T21:56:34;22.30;1.00
8114;DHT22;4099;52.684;9.918;2022-08-03T22:01:39;22.00;1.00
8114;DHT22;4099;52.684;9.918;2022-08-03T22:06:45;22.00;1.00
8114;DHT22;4099;52.684;9.918;2022-08-03T22:11:49;22.10;1.00
8114;DHT22;4099;52.684;9.918;2022-08-03T22:16:54;22.40;1.00
8114;DHT22;4099;52.684;9.918;2022-08-03T22:21:59;22.30;1.00
8114;DHT22;4099;52.684;9.918;2022-08-03T22:27:04;21.90;1.00
8114;DHT22;4099;52.684;9.918;2022-08-03T22:32:24;21.60;1.00
8114;DHT22;4099;52.684;9.918;2022-08-03T22:37:29;21.30;1.00
8114;DHT22;4099;52.684;9.918;2022-08-03T22:42:32;21.20;1.10
8114;DHT22;4099;52.684;9.918;2022-08-03T22:47:38;21.00;29.90
8114;DHT22;4099;52.684;9.918;2022-08-03T22:52:43;21.00;99.90
8114;DHT22;4099;52.684;9.918;2022-08-03T22:57:45;20.80;54.50
8114;DHT22;4099;52.684;9.918;2022-08-03T23:02:47;20.80;90.70
8114;DHT22;4099;52.684;9.918;2022-08-03T23:07:54;20.70;99.90
8114;DHT22;4099;52.684;9.918;2022-08-03T23:12:57;20.70;83.30
8114;DHT22;4099;52.684;9.918;2022-08-03T23:18:01;20.80;94.30
8114;DHT22;4099;52.684;9.918;2022-08-03T23:23:05;20.90;37.10
8114;DHT22;4099;52.684;9.918;2022-08-03T23:28:13;20.50;99.90
8114;DHT22;4099;52.684;9.918;2022-08-03T23:33:16;20.30;99.90
8114;DHT22;4099;52.684;9.918;2022-08-03T23:38:20;20.20;99.90
8114;DHT22;4099;52.684;9.918;2022-08-03T23:43:24;20.20;99.90
8114;DHT22;4099;52.684;9.918;2022-08-03T23:48:26;20.30;99.90
8114;DHT22;4099;52.684;9.918;2022-08-03T23:53:37;20.30;99.90
8114;DHT22;4099;52.684;9.918;2022-08-03T23:58:58;20.40;99.90
